createdAt,value
2022-11-26T00:09:30.121Z,8.7
2022-11-26T00:24:00.880Z,8.7
2022-11-26T00:38:31.874Z,8.7
2022-11-26T00:53:04.815Z,8.7
2022-11-26T01:07:31.502Z,8.5
2022-11-26T01:22:03.194Z,8.5
2022-11-26T01:36:33.481Z,8.7
2022-11-26T01:51:04.058Z,8.8
2022-11-26T02:05:34.418Z,8.6
2022-11-26T02:20:05.103Z,8.6
2022-11-26T02:34:38.928Z,8.6
2022-11-26T02:49:07.096Z,8.7
2022-11-26T03:03:38.216Z,8.7
2022-11-26T03:18:13.464Z,8.7
2022-11-26T03:32:40.235Z,8.6
2022-11-26T03:47:09.768Z,8.6
2022-11-26T04:01:38.400Z,8.6
2022-11-26T04:16:08.493Z,8.7
2022-11-26T04:30:39.580Z,8.3
2022-11-26T04:45:09.143Z,8.1
2022-11-26T04:59:40.312Z,8
2022-11-26T05:14:10.927Z,8.1
2022-11-26T05:28:40.964Z,8.3
2022-11-26T05:43:11.560Z,8.3
2022-11-26T05:57:41.405Z,8.4
2022-11-26T06:12:11.253Z,8.3
2022-11-26T06:26:43.584Z,8.3
2022-11-26T06:41:10.875Z,8.4
2022-11-26T06:55:41.020Z,8.2
2022-11-26T07:10:11.136Z,8.1
2022-11-26T07:24:41.596Z,8
2022-11-26T07:39:12.922Z,8.2
2022-11-26T07:53:43.224Z,8.2
2022-11-26T08:08:14.448Z,8.1
2022-11-26T08:22:44.187Z,7.9
2022-11-26T08:37:14.396Z,8.1
2022-11-26T08:51:45.609Z,8.4
2022-11-26T09:06:17.817Z,9.4
2022-11-26T09:20:57.706Z,8.4
2022-11-26T09:35:19.336Z,8.5
2022-11-26T09:49:49.490Z,8.7
2022-11-26T10:04:17.613Z,8.9
2022-11-26T10:18:49.095Z,8.9
2022-11-26T10:33:17.720Z,8.2
2022-11-26T10:47:48.482Z,8.5
2022-11-26T11:02:18.146Z,8.4
2022-11-26T11:16:47.725Z,8
2022-11-26T11:31:17.653Z,8.4
2022-11-26T11:45:54.012Z,8.8
2022-11-26T12:00:19.115Z,8.7
2022-11-26T12:14:48.173Z,8.3
2022-11-26T12:29:15.603Z,8.3
2022-11-26T12:43:46.120Z,7.9
2022-11-26T12:58:15.191Z,8.4
2022-11-26T13:12:46.195Z,8.1
2022-11-26T13:27:16.637Z,8.3
2022-11-26T13:41:46.515Z,8
2022-11-26T13:56:15.207Z,8.3
2022-11-26T14:10:45.331Z,8.4
2022-11-26T14:25:14.855Z,8.4
2022-11-26T14:39:43.863Z,8.4
2022-11-26T14:54:13.223Z,8.4
2022-11-26T15:08:44.341Z,8.6
2022-11-26T15:23:22.158Z,8.3
2022-11-26T15:37:48.437Z,8.1
2022-11-26T15:52:17.908Z,8
2022-11-26T16:06:47.291Z,7.6
2022-11-26T16:21:15.823Z,7.5
2022-11-26T16:35:47.597Z,7.2
2022-11-26T16:50:16.702Z,7.2
2022-11-26T17:04:47.310Z,7.1
2022-11-26T17:19:17.416Z,7.3
2022-11-26T17:33:47.776Z,7.2
2022-11-26T17:48:17.857Z,7.2
2022-11-26T18:02:48.298Z,7
2022-11-26T18:17:20.140Z,6.6
2022-11-26T18:31:48.925Z,6.6
2022-11-26T18:46:19.106Z,6.3
2022-11-26T19:00:49.617Z,6.2
2022-11-26T19:15:18.761Z,6.2
2022-11-26T19:29:48.043Z,5.9
2022-11-26T19:44:19.959Z,5.9
2022-11-26T19:58:48.478Z,5.8
2022-11-26T20:13:17.789Z,5.6
2022-11-26T20:27:47.433Z,5.6
2022-11-26T20:42:27.635Z,5.4
2022-11-26T20:56:52.041Z,5.5
2022-11-26T21:11:22.214Z,5.8
2022-11-26T21:40:22.822Z,6.3
2022-11-26T21:54:53.642Z,6.4
2022-11-26T22:09:24.034Z,6.6
2022-11-26T22:23:53.945Z,6.3
2022-11-26T22:38:23.891Z,6.1
2022-11-26T22:52:53.876Z,6.1
2022-11-26T23:07:23.879Z,6
2022-11-26T23:21:53.863Z,6.1
2022-11-26T23:36:23.046Z,6
2022-11-26T23:50:51.783Z,5.8
